sensor_id;sensor_type;location;lat;lon;timestamp;P1;durP1;ratioP1;P2;durP2;ratioP2
50010;SDS011;35899;50.352;19.390;2023-12-20T00:01:03;7.40;;;3.80;;
50010;SDS011;35899;50.352;19.390;2023-12-20T00:03:40;6.10;;;3.10;;
50010;SDS011;35899;50.352;19.390;2023-12-20T00:06:09;7.00;;;3.20;;
50010;SDS011;35899;50.352;19.390;2023-12-20T00:08:36;7.40;;;3.90;;
50010;SDS011;35899;50.352;19.390;2023-12-20T00:11:03;6.40;;;3.30;;
50010;SDS011;35899;50.352;19.390;2023-12-20T00:13:30;8.00;;;3.30;;
50010;SDS011;35899;50.352;19.390;2023-12-20T00:15:57;6.70;;;3.00;;
50010;SDS011;35899;50.352;19.390;2023-12-20T00:18:23;6.40;;;3.10;;
50010;SDS011;35899;50.352;19.390;2023-12-20T00:20:50;6.10;;;3.00;;
50010;SDS011;35899;50.352;19.390;2023-12-20T00:23:17;6.90;;;3.10;;
50010;SDS011;35899;50.352;19.390;2023-12-20T00:25:43;5.70;;;3.20;;
50010;SDS011;35899;50.352;19.390;2023-12-20T00:28:10;5.90;;;2.90;;
50010;SDS011;35899;50.352;19.390;2023-12-20T00:30:38;5.40;;;2.80;;
50010;SDS011;35899;50.352;19.390;2023-12-20T00:33:05;6.20;;;3.10;;
50010;SDS011;35899;50.352;19.390;2023-12-20T00:35:32;5.10;;;3.20;;
50010;SDS011;35899;50.352;19.390;2023-12-20T00:38:19;7.10;;;3.20;;
50010;SDS011;35899;50.352;19.390;2023-12-20T00:40:45;7.50;;;3.30;;
50010;SDS011;35899;50.352;19.390;2023-12-20T00:43:17;7.40;;;3.70;;
50010;SDS011;35899;50.352;19.390;2023-12-20T00:45:54;7.50;;;3.30;;
50010;SDS011;35899;50.352;19.390;2023-12-20T00:48:20;8.30;;;3.70;;
50010;SDS011;35899;50.352;19.390;2023-12-20T00:50:47;7.50;;;3.70;;
50010;SDS011;35899;50.352;19.390;2023-12-20T00:53:14;8.50;;;4.00;;
50010;SDS011;35899;50.352;19.390;2023-12-20T00:55:41;7.30;;;3.20;;
50010;SDS011;35899;50.352;19.390;2023-12-20T00:58:08;5.90;;;3.50;;
50010;SDS011;35899;50.352;19.390;2023-12-20T01:00:39;7.80;;;3.40;;
50010;SDS011;35899;50.352;19.390;2023-12-20T01:03:09;7.90;;;3.20;;
50010;SDS011;35899;50.352;19.390;2023-12-20T01:05:36;10.30;;;4.60;;
50010;SDS011;35899;50.352;19.390;2023-12-20T01:08:03;23.60;;;8.60;;
50010;SDS011;35899;50.352;19.390;2023-12-20T01:10:31;5.70;;;3.20;;
50010;SDS011;35899;50.352;19.390;2023-12-20T01:12:57;12.70;;;4.90;;
50010;SDS011;35899;50.352;19.390;2023-12-20T01:15:24;6.20;;;3.20;;
50010;SDS011;35899;50.352;19.390;2023-12-20T01:17:51;7.50;;;3.00;;
50010;SDS011;35899;50.352;19.390;2023-12-20T01:20:18;7.20;;;3.60;;
50010;SDS011;35899;50.352;19.390;2023-12-20T01:22:45;6.30;;;3.10;;
50010;SDS011;35899;50.352;19.390;2023-12-20T01:25:11;114.00;;;29.60;;
50010;SDS011;35899;50.352;19.390;2023-12-20T01:27:38;6.70;;;3.20;;
50010;SDS011;35899;50.352;19.390;2023-12-20T01:30:05;7.10;;;2.90;;
50010;SDS011;35899;50.352;19.390;2023-12-20T01:32:33;5.80;;;2.90;;
50010;SDS011;35899;50.352;19.390;2023-12-20T01:35:00;5.60;;;2.90;;
50010;SDS011;35899;50.352;19.390;2023-12-20T01:37:29;5.20;;;2.50;;
50010;SDS011;35899;50.352;19.390;2023-12-20T01:39:56;4.30;;;2.50;;
50010;SDS011;35899;50.352;19.390;2023-12-20T01:42:23;5.20;;;2.70;;
50010;SDS011;35899;50.352;19.390;2023-12-20T01:44:50;4.90;;;2.70;;
50010;SDS011;35899;50.352;19.390;2023-12-20T01:47:17;7.00;;;3.10;;
50010;SDS011;35899;50.352;19.390;2023-12-20T01:49:44;4.70;;;2.40;;
50010;SDS011;35899;50.352;19.390;2023-12-20T01:52:11;9.50;;;3.60;;
50010;SDS011;35899;50.352;19.390;2023-12-20T01:54:39;7.40;;;3.00;;
50010;SDS011;35899;50.352;19.390;2023-12-20T01:57:06;4.80;;;2.30;;
50010;SDS011;35899;50.352;19.390;2023-12-20T01:59:34;4.20;;;2.50;;
50010;SDS011;35899;50.352;19.390;2023-12-20T02:08:18;4.70;;;2.40;;
50010;SDS011;35899;50.352;19.390;2023-12-20T02:10:45;10.00;;;4.60;;
50010;SDS011;35899;50.352;19.390;2023-12-20T02:13:27;4.90;;;2.50;;
50010;SDS011;35899;50.352;19.390;2023-12-20T02:15:57;5.00;;;2.60;;
50010;SDS011;35899;50.352;19.390;2023-12-20T02:18:23;4.90;;;2.80;;
50010;SDS011;35899;50.352;19.390;2023-12-20T02:20:50;8.50;;;4.20;;
50010;SDS011;35899;50.352;19.390;2023-12-20T02:23:17;10.20;;;4.40;;
50010;SDS011;35899;50.352;19.390;2023-12-20T02:25:43;10.00;;;4.20;;
50010;SDS011;35899;50.352;19.390;2023-12-20T02:28:10;6.10;;;3.00;;
50010;SDS011;35899;50.352;19.390;2023-12-20T02:30:37;7.70;;;3.50;;
50010;SDS011;35899;50.352;19.390;2023-12-20T02:33:03;6.00;;;3.20;;
50010;SDS011;35899;50.352;19.390;2023-12-20T02:35:36;6.90;;;3.00;;
50010;SDS011;35899;50.352;19.390;2023-12-20T02:38:03;6.60;;;3.20;;
50010;SDS011;35899;50.352;19.390;2023-12-20T02:40:30;6.30;;;3.00;;
50010;SDS011;35899;50.352;19.390;2023-12-20T02:42:56;6.50;;;3.60;;
50010;SDS011;35899;50.352;19.390;2023-12-20T02:45:23;8.50;;;3.60;;
50010;SDS011;35899;50.352;19.390;2023-12-20T02:47:49;6.40;;;3.20;;
50010;SDS011;35899;50.352;19.390;2023-12-20T02:50:16;5.20;;;3.10;;
50010;SDS011;35899;50.352;19.390;2023-12-20T02:52:46;8.30;;;3.90;;
50010;SDS011;35899;50.352;19.390;2023-12-20T02:55:13;5.40;;;3.40;;
50010;SDS011;35899;50.352;19.390;2023-12-20T02:57:39;7.60;;;3.00;;
50010;SDS011;35899;50.352;19.390;2023-12-20T03:00:06;5.10;;;3.00;;
50010;SDS011;35899;50.352;19.390;2023-12-20T03:02:33;6.10;;;3.50;;
50010;SDS011;35899;50.352;19.390;2023-12-20T03:05:00;5.90;;;3.70;;
50010;SDS011;35899;50.352;19.390;2023-12-20T03:07:26;4.80;;;2.80;;
50010;SDS011;35899;50.352;19.390;2023-12-20T03:09:53;6.20;;;3.40;;
50010;SDS011;35899;50.352;19.390;2023-12-20T03:12:40;5.40;;;3.30;;
50010;SDS011;35899;50.352;19.390;2023-12-20T03:15:06;7.30;;;3.30;;
50010;SDS011;35899;50.352;19.390;2023-12-20T03:17:33;8.30;;;4.40;;
50010;SDS011;35899;50.352;19.390;2023-12-20T03:20:00;8.10;;;4.00;;
50010;SDS011;35899;50.352;19.390;2023-12-20T03:22:26;6.00;;;4.00;;
50010;SDS011;35899;50.352;19.390;2023-12-20T03:24:53;9.70;;;4.40;;
50010;SDS011;35899;50.352;19.390;2023-12-20T03:27:20;9.50;;;5.20;;
50010;SDS011;35899;50.352;19.390;2023-12-20T03:29:46;12.10;;;6.20;;
50010;SDS011;35899;50.352;19.390;2023-12-20T03:32:13;15.40;;;7.20;;
50010;SDS011;35899;50.352;19.390;2023-12-20T03:34:39;15.20;;;6.60;;
50010;SDS011;35899;50.352;19.390;2023-12-20T03:37:06;19.30;;;7.20;;
50010;SDS011;35899;50.352;19.390;2023-12-20T03:39:33;15.60;;;7.00;;
50010;SDS011;35899;50.352;19.390;2023-12-20T03:41:59;16.50;;;7.80;;
50010;SDS011;35899;50.352;19.390;2023-12-20T03:44:26;18.10;;;9.00;;
50010;SDS011;35899;50.352;19.390;2023-12-20T03:46:52;22.00;;;10.00;;
50010;SDS011;35899;50.352;19.390;2023-12-20T03:49:19;20.20;;;9.60;;
50010;SDS011;35899;50.352;19.390;2023-12-20T03:51:45;15.70;;;7.80;;
50010;SDS011;35899;50.352;19.390;2023-12-20T03:54:12;17.10;;;7.90;;
50010;SDS011;35899;50.352;19.390;2023-12-20T03:56:39;15.20;;;9.20;;
50010;SDS011;35899;50.352;19.390;2023-12-20T03:59:05;14.50;;;8.10;;
50010;SDS011;35899;50.352;19.390;2023-12-20T04:01:32;14.40;;;7.80;;
50010;SDS011;35899;50.352;19.390;2023-12-20T04:03:58;20.10;;;10.20;;
50010;SDS011;35899;50.352;19.390;2023-12-20T04:06:25;16.80;;;9.90;;
50010;SDS011;35899;50.352;19.390;2023-12-20T04:08:52;20.00;;;11.60;;
50010;SDS011;35899;50.352;19.390;2023-12-20T04:11:18;18.50;;;10.40;;
50010;SDS011;35899;50.352;19.390;2023-12-20T04:13:45;26.70;;;13.60;;
50010;SDS011;35899;50.352;19.390;2023-12-20T04:16:12;20.20;;;12.90;;
50010;SDS011;35899;50.352;19.390;2023-12-20T04:18:38;18.60;;;10.90;;
50010;SDS011;35899;50.352;19.390;2023-12-20T04:21:05;22.30;;;11.90;;
50010;SDS011;35899;50.352;19.390;2023-12-20T04:23:32;24.70;;;13.10;;
50010;SDS011;35899;50.352;19.390;2023-12-20T04:25:59;16.00;;;8.90;;
50010;SDS011;35899;50.352;19.390;2023-12-20T04:28:25;13.30;;;7.90;;
50010;SDS011;35899;50.352;19.390;2023-12-20T04:30:52;13.90;;;8.30;;
50010;SDS011;35899;50.352;19.390;2023-12-20T04:33:18;14.10;;;8.40;;
50010;SDS011;35899;50.352;19.390;2023-12-20T04:35:45;15.10;;;9.00;;
50010;SDS011;35899;50.352;19.390;2023-12-20T04:38:12;17.50;;;9.20;;
50010;SDS011;35899;50.352;19.390;2023-12-20T04:40:38;16.80;;;10.00;;
50010;SDS011;35899;50.352;19.390;2023-12-20T04:43:05;16.10;;;10.00;;
50010;SDS011;35899;50.352;19.390;2023-12-20T04:45:31;17.20;;;9.70;;
50010;SDS011;35899;50.352;19.390;2023-12-20T04:47:58;16.80;;;9.80;;
50010;SDS011;35899;50.352;19.390;2023-12-20T04:50:25;13.80;;;8.50;;
50010;SDS011;35899;50.352;19.390;2023-12-20T04:52:51;18.10;;;10.20;;
50010;SDS011;35899;50.352;19.390;2023-12-20T04:55:18;21.20;;;11.70;;
50010;SDS011;35899;50.352;19.390;2023-12-20T04:57:45;37.90;;;20.70;;
50010;SDS011;35899;50.352;19.390;2023-12-20T05:00:12;20.20;;;12.80;;
50010;SDS011;35899;50.352;19.390;2023-12-20T05:02:39;19.40;;;12.20;;
50010;SDS011;35899;50.352;19.390;2023-12-20T05:05:06;28.20;;;16.30;;
50010;SDS011;35899;50.352;19.390;2023-12-20T05:07:33;23.30;;;13.90;;
50010;SDS011;35899;50.352;19.390;2023-12-20T05:09:59;30.80;;;17.00;;
50010;SDS011;35899;50.352;19.390;2023-12-20T05:12:26;27.10;;;16.50;;
50010;SDS011;35899;50.352;19.390;2023-12-20T05:14:53;26.30;;;14.90;;
50010;SDS011;35899;50.352;19.390;2023-12-20T05:17:19;25.70;;;15.80;;
50010;SDS011;35899;50.352;19.390;2023-12-20T05:19:46;27.80;;;16.20;;
50010;SDS011;35899;50.352;19.390;2023-12-20T05:22:12;27.30;;;15.20;;
50010;SDS011;35899;50.352;19.390;2023-12-20T05:24:39;28.90;;;17.20;;
50010;SDS011;35899;50.352;19.390;2023-12-20T05:27:06;24.40;;;14.50;;
50010;SDS011;35899;50.352;19.390;2023-12-20T05:29:33;26.50;;;15.50;;
50010;SDS011;35899;50.352;19.390;2023-12-20T05:31:59;30.70;;;16.70;;
50010;SDS011;35899;50.352;19.390;2023-12-20T05:34:26;25.80;;;14.50;;
50010;SDS011;35899;50.352;19.390;2023-12-20T05:36:53;32.70;;;18.50;;
50010;SDS011;35899;50.352;19.390;2023-12-20T05:39:20;32.00;;;18.10;;
50010;SDS011;35899;50.352;19.390;2023-12-20T05:41:46;31.20;;;18.30;;
50010;SDS011;35899;50.352;19.390;2023-12-20T05:44:13;34.60;;;20.70;;
50010;SDS011;35899;50.352;19.390;2023-12-20T05:46:40;36.00;;;21.60;;
50010;SDS011;35899;50.352;19.390;2023-12-20T05:49:07;37.00;;;21.00;;
50010;SDS011;35899;50.352;19.390;2023-12-20T05:51:33;40.50;;;21.70;;
50010;SDS011;35899;50.352;19.390;2023-12-20T05:54:00;38.20;;;21.00;;
50010;SDS011;35899;50.352;19.390;2023-12-20T05:56:26;36.70;;;20.50;;
50010;SDS011;35899;50.352;19.390;2023-12-20T05:58:53;34.90;;;20.20;;
50010;SDS011;35899;50.352;19.390;2023-12-20T06:01:20;31.10;;;17.80;;
50010;SDS011;35899;50.352;19.390;2023-12-20T06:03:46;32.70;;;17.50;;
50010;SDS011;35899;50.352;19.390;2023-12-20T06:06:13;29.30;;;15.60;;
50010;SDS011;35899;50.352;19.390;2023-12-20T06:08:43;30.10;;;16.70;;
50010;SDS011;35899;50.352;19.390;2023-12-20T06:11:10;30.80;;;16.70;;
50010;SDS011;35899;50.352;19.390;2023-12-20T06:13:36;33.20;;;17.60;;
50010;SDS011;35899;50.352;19.390;2023-12-20T06:16:04;32.70;;;17.10;;
50010;SDS011;35899;50.352;19.390;2023-12-20T06:18:32;33.70;;;18.50;;
50010;SDS011;35899;50.352;19.390;2023-12-20T06:20:59;33.40;;;18.20;;
50010;SDS011;35899;50.352;19.390;2023-12-20T06:23:25;29.60;;;16.50;;
50010;SDS011;35899;50.352;19.390;2023-12-20T06:25:52;32.90;;;18.30;;
50010;SDS011;35899;50.352;19.390;2023-12-20T06:28:18;32.20;;;17.10;;
50010;SDS011;35899;50.352;19.390;2023-12-20T06:30:45;29.60;;;17.30;;
50010;SDS011;35899;50.352;19.390;2023-12-20T06:33:12;30.00;;;17.00;;
50010;SDS011;35899;50.352;19.390;2023-12-20T06:35:39;29.20;;;16.30;;
50010;SDS011;35899;50.352;19.390;2023-12-20T06:38:05;27.80;;;16.40;;
50010;SDS011;35899;50.352;19.390;2023-12-20T06:40:32;31.70;;;17.50;;
50010;SDS011;35899;50.352;19.390;2023-12-20T06:42:59;35.90;;;18.70;;
50010;SDS011;35899;50.352;19.390;2023-12-20T06:45:38;37.00;;;18.50;;
50010;SDS011;35899;50.352;19.390;2023-12-20T06:48:05;32.50;;;18.20;;
50010;SDS011;35899;50.352;19.390;2023-12-20T06:50:32;30.80;;;18.20;;
50010;SDS011;35899;50.352;19.390;2023-12-20T06:52:59;35.00;;;18.20;;
50010;SDS011;35899;50.352;19.390;2023-12-20T06:55:25;36.40;;;18.90;;
50010;SDS011;35899;50.352;19.390;2023-12-20T06:57:52;36.70;;;19.10;;
50010;SDS011;35899;50.352;19.390;2023-12-20T07:00:19;37.70;;;19.90;;
50010;SDS011;35899;50.352;19.390;2023-12-20T07:02:45;34.90;;;19.50;;
50010;SDS011;35899;50.352;19.390;2023-12-20T07:05:12;38.70;;;20.50;;
50010;SDS011;35899;50.352;19.390;2023-12-20T07:07:39;32.70;;;18.40;;
50010;SDS011;35899;50.352;19.390;2023-12-20T07:10:05;37.70;;;20.00;;
50010;SDS011;35899;50.352;19.390;2023-12-20T07:12:32;39.50;;;21.00;;
50010;SDS011;35899;50.352;19.390;2023-12-20T07:14:59;52.00;;;23.50;;
50010;SDS011;35899;50.352;19.390;2023-12-20T07:17:26;39.60;;;20.80;;
50010;SDS011;35899;50.352;19.390;2023-12-20T07:19:54;41.60;;;22.00;;
50010;SDS011;35899;50.352;19.390;2023-12-20T07:22:21;46.30;;;24.20;;
50010;SDS011;35899;50.352;19.390;2023-12-20T07:24:47;43.00;;;23.30;;
50010;SDS011;35899;50.352;19.390;2023-12-20T07:27:14;45.10;;;23.00;;
50010;SDS011;35899;50.352;19.390;2023-12-20T07:29:41;48.70;;;25.40;;
50010;SDS011;35899;50.352;19.390;2023-12-20T07:32:07;51.00;;;25.50;;
50010;SDS011;35899;50.352;19.390;2023-12-20T07:34:34;52.60;;;27.30;;
50010;SDS011;35899;50.352;19.390;2023-12-20T07:37:03;47.00;;;25.60;;
50010;SDS011;35899;50.352;19.390;2023-12-20T07:39:30;54.50;;;28.70;;
50010;SDS011;35899;50.352;19.390;2023-12-20T07:41:57;51.80;;;27.20;;
50010;SDS011;35899;50.352;19.390;2023-12-20T07:44:24;61.00;;;30.20;;
50010;SDS011;35899;50.352;19.390;2023-12-20T07:46:50;59.10;;;29.50;;
50010;SDS011;35899;50.352;19.390;2023-12-20T07:49:17;45.50;;;24.20;;
50010;SDS011;35899;50.352;19.390;2023-12-20T07:51:45;56.30;;;25.70;;
50010;SDS011;35899;50.352;19.390;2023-12-20T07:54:12;53.80;;;29.00;;
50010;SDS011;35899;50.352;19.390;2023-12-20T07:56:39;56.50;;;28.10;;
50010;SDS011;35899;50.352;19.390;2023-12-20T07:59:05;56.60;;;29.10;;
50010;SDS011;35899;50.352;19.390;2023-12-20T08:01:38;51.90;;;27.60;;
50010;SDS011;35899;50.352;19.390;2023-12-20T08:04:04;59.70;;;28.70;;
50010;SDS011;35899;50.352;19.390;2023-12-20T08:06:31;55.90;;;28.30;;
50010;SDS011;35899;50.352;19.390;2023-12-20T08:08:58;54.40;;;28.50;;
50010;SDS011;35899;50.352;19.390;2023-12-20T08:11:32;62.30;;;29.70;;
50010;SDS011;35899;50.352;19.390;2023-12-20T08:13:59;71.00;;;36.90;;
50010;SDS011;35899;50.352;19.390;2023-12-20T08:16:27;70.50;;;35.50;;
50010;SDS011;35899;50.352;19.390;2023-12-20T08:18:54;67.40;;;33.50;;
50010;SDS011;35899;50.352;19.390;2023-12-20T08:21:20;56.00;;;29.20;;
50010;SDS011;35899;50.352;19.390;2023-12-20T08:23:47;45.50;;;23.90;;
50010;SDS011;35899;50.352;19.390;2023-12-20T08:26:14;53.10;;;28.00;;
50010;SDS011;35899;50.352;19.390;2023-12-20T08:28:44;53.70;;;27.30;;
50010;SDS011;35899;50.352;19.390;2023-12-20T08:31:17;55.60;;;28.40;;
50010;SDS011;35899;50.352;19.390;2023-12-20T08:33:45;58.10;;;30.00;;
50010;SDS011;35899;50.352;19.390;2023-12-20T08:36:13;48.80;;;26.60;;
50010;SDS011;35899;50.352;19.390;2023-12-20T08:38:40;60.00;;;29.80;;
50010;SDS011;35899;50.352;19.390;2023-12-20T08:41:07;54.30;;;28.80;;
50010;SDS011;35899;50.352;19.390;2023-12-20T08:43:34;61.10;;;33.40;;
50010;SDS011;35899;50.352;19.390;2023-12-20T08:46:01;67.20;;;34.90;;
50010;SDS011;35899;50.352;19.390;2023-12-20T08:48:28;72.20;;;38.40;;
50010;SDS011;35899;50.352;19.390;2023-12-20T08:50:55;69.80;;;37.90;;
50010;SDS011;35899;50.352;19.390;2023-12-20T08:53:22;70.80;;;36.10;;
50010;SDS011;35899;50.352;19.390;2023-12-20T08:55:48;65.50;;;32.30;;
50010;SDS011;35899;50.352;19.390;2023-12-20T08:58:15;62.70;;;31.40;;
50010;SDS011;35899;50.352;19.390;2023-12-20T09:00:42;56.30;;;28.90;;
50010;SDS011;35899;50.352;19.390;2023-12-20T09:03:09;50.10;;;26.60;;
50010;SDS011;35899;50.352;19.390;2023-12-20T09:05:36;57.10;;;29.20;;
50010;SDS011;35899;50.352;19.390;2023-12-20T09:08:02;54.90;;;26.60;;
50010;SDS011;35899;50.352;19.390;2023-12-20T09:10:29;49.40;;;26.10;;
50010;SDS011;35899;50.352;19.390;2023-12-20T09:12:56;51.80;;;25.90;;
50010;SDS011;35899;50.352;19.390;2023-12-20T09:15:23;42.20;;;23.80;;
50010;SDS011;35899;50.352;19.390;2023-12-20T09:17:50;43.10;;;22.60;;
50010;SDS011;35899;50.352;19.390;2023-12-20T09:20:17;45.90;;;24.10;;
50010;SDS011;35899;50.352;19.390;2023-12-20T09:22:44;39.70;;;22.50;;
50010;SDS011;35899;50.352;19.390;2023-12-20T09:25:11;41.10;;;21.90;;
50010;SDS011;35899;50.352;19.390;2023-12-20T09:27:39;43.10;;;22.40;;
50010;SDS011;35899;50.352;19.390;2023-12-20T09:30:06;39.40;;;22.30;;
50010;SDS011;35899;50.352;19.390;2023-12-20T09:32:34;36.20;;;20.20;;
50010;SDS011;35899;50.352;19.390;2023-12-20T09:35:01;37.80;;;21.10;;
50010;SDS011;35899;50.352;19.390;2023-12-20T09:37:28;37.20;;;21.50;;
50010;SDS011;35899;50.352;19.390;2023-12-20T09:39:55;40.40;;;21.00;;
50010;SDS011;35899;50.352;19.390;2023-12-20T09:42:35;38.90;;;20.50;;
50010;SDS011;35899;50.352;19.390;2023-12-20T09:45:10;36.00;;;19.40;;
50010;SDS011;35899;50.352;19.390;2023-12-20T09:47:42;36.30;;;21.10;;
50010;SDS011;35899;50.352;19.390;2023-12-20T09:50:11;35.60;;;20.60;;
50010;SDS011;35899;50.352;19.390;2023-12-20T09:52:39;42.70;;;23.00;;
50010;SDS011;35899;50.352;19.390;2023-12-20T09:55:08;38.90;;;21.10;;
50010;SDS011;35899;50.352;19.390;2023-12-20T09:57:35;41.30;;;21.70;;
50010;SDS011;35899;50.352;19.390;2023-12-20T10:00:02;39.40;;;20.90;;
50010;SDS011;35899;50.352;19.390;2023-12-20T10:02:38;36.50;;;19.70;;
50010;SDS011;35899;50.352;19.390;2023-12-20T10:07:42;42.00;;;21.80;;
50010;SDS011;35899;50.352;19.390;2023-12-20T10:10:09;40.40;;;21.50;;
50010;SDS011;35899;50.352;19.390;2023-12-20T10:12:37;40.90;;;22.20;;
50010;SDS011;35899;50.352;19.390;2023-12-20T10:15:05;45.80;;;24.40;;
50010;SDS011;35899;50.352;19.390;2023-12-20T10:17:32;42.30;;;21.90;;
50010;SDS011;35899;50.352;19.390;2023-12-20T10:19:59;45.60;;;24.80;;
50010;SDS011;35899;50.352;19.390;2023-12-20T10:22:26;46.00;;;24.70;;
50010;SDS011;35899;50.352;19.390;2023-12-20T10:24:53;41.40;;;23.30;;
50010;SDS011;35899;50.352;19.390;2023-12-20T10:27:21;48.60;;;25.00;;
50010;SDS011;35899;50.352;19.390;2023-12-20T10:29:49;50.70;;;26.50;;
50010;SDS011;35899;50.352;19.390;2023-12-20T10:32:22;49.80;;;24.20;;
50010;SDS011;35899;50.352;19.390;2023-12-20T10:34:51;51.00;;;26.70;;
50010;SDS011;35899;50.352;19.390;2023-12-20T10:37:19;49.40;;;26.00;;
50010;SDS011;35899;50.352;19.390;2023-12-20T10:39:54;51.00;;;26.50;;
50010;SDS011;35899;50.352;19.390;2023-12-20T10:42:21;56.00;;;28.30;;
50010;SDS011;35899;50.352;19.390;2023-12-20T10:44:48;56.60;;;27.90;;
50010;SDS011;35899;50.352;19.390;2023-12-20T10:47:15;74.00;;;34.80;;
50010;SDS011;35899;50.352;19.390;2023-12-20T10:49:43;67.10;;;32.80;;
50010;SDS011;35899;50.352;19.390;2023-12-20T10:52:09;58.50;;;28.50;;
50010;SDS011;35899;50.352;19.390;2023-12-20T10:54:44;64.60;;;31.30;;
50010;SDS011;35899;50.352;19.390;2023-12-20T10:57:11;43.60;;;23.10;;
50010;SDS011;35899;50.352;19.390;2023-12-20T10:59:38;44.50;;;23.00;;
50010;SDS011;35899;50.352;19.390;2023-12-20T11:02:06;48.20;;;25.20;;
50010;SDS011;35899;50.352;19.390;2023-12-20T11:12:25;36.90;;;19.20;;
50010;SDS011;35899;50.352;19.390;2023-12-20T11:15:01;43.60;;;20.60;;
50010;SDS011;35899;50.352;19.390;2023-12-20T11:17:29;42.30;;;20.70;;
50010;SDS011;35899;50.352;19.390;2023-12-20T11:20:05;54.70;;;25.40;;
50010;SDS011;35899;50.352;19.390;2023-12-20T11:22:33;43.40;;;21.40;;
50010;SDS011;35899;50.352;19.390;2023-12-20T11:25:05;71.20;;;26.90;;
50010;SDS011;35899;50.352;19.390;2023-12-20T11:27:33;54.00;;;22.30;;
50010;SDS011;35899;50.352;19.390;2023-12-20T11:30:03;34.10;;;17.30;;
50010;SDS011;35899;50.352;19.390;2023-12-20T11:32:33;29.40;;;17.00;;
50010;SDS011;35899;50.352;19.390;2023-12-20T11:35:16;33.50;;;19.70;;
50010;SDS011;35899;50.352;19.390;2023-12-20T11:37:46;39.00;;;19.00;;
50010;SDS011;35899;50.352;19.390;2023-12-20T11:40:14;38.90;;;20.60;;
50010;SDS011;35899;50.352;19.390;2023-12-20T11:42:42;46.30;;;25.50;;
50010;SDS011;35899;50.352;19.390;2023-12-20T11:45:15;59.10;;;29.40;;
50010;SDS011;35899;50.352;19.390;2023-12-20T11:47:48;68.70;;;31.60;;
50010;SDS011;35899;50.352;19.390;2023-12-20T11:50:22;61.90;;;33.00;;
50010;SDS011;35899;50.352;19.390;2023-12-20T11:52:50;69.70;;;35.10;;
50010;SDS011;35899;50.352;19.390;2023-12-20T11:55:28;90.50;;;38.70;;
50010;SDS011;35899;50.352;19.390;2023-12-20T11:57:55;79.70;;;38.80;;
50010;SDS011;35899;50.352;19.390;2023-12-20T12:00:22;73.10;;;31.90;;
50010;SDS011;35899;50.352;19.390;2023-12-20T12:02:56;90.10;;;38.70;;
50010;SDS011;35899;50.352;19.390;2023-12-20T12:05:23;82.60;;;36.40;;
50010;SDS011;35899;50.352;19.390;2023-12-20T12:07:50;101.10;;;42.90;;
50010;SDS011;35899;50.352;19.390;2023-12-20T12:10:19;86.20;;;37.10;;
50010;SDS011;35899;50.352;19.390;2023-12-20T12:12:45;75.80;;;34.10;;
50010;SDS011;35899;50.352;19.390;2023-12-20T12:15:13;78.50;;;33.30;;
50010;SDS011;35899;50.352;19.390;2023-12-20T12:17:41;83.60;;;38.20;;
50010;SDS011;35899;50.352;19.390;2023-12-20T12:20:08;72.30;;;32.80;;
50010;SDS011;35899;50.352;19.390;2023-12-20T12:22:37;79.40;;;34.80;;
50010;SDS011;35899;50.352;19.390;2023-12-20T12:25:10;68.90;;;30.30;;
50010;SDS011;35899;50.352;19.390;2023-12-20T12:27:45;60.40;;;28.30;;
50010;SDS011;35899;50.352;19.390;2023-12-20T12:30:15;52.70;;;25.40;;
50010;SDS011;35899;50.352;19.390;2023-12-20T12:32:44;53.30;;;26.00;;
50010;SDS011;35899;50.352;19.390;2023-12-20T12:35:11;40.20;;;21.90;;
50010;SDS011;35899;50.352;19.390;2023-12-20T12:37:38;36.20;;;20.30;;
50010;SDS011;35899;50.352;19.390;2023-12-20T12:40:06;40.90;;;20.70;;
50010;SDS011;35899;50.352;19.390;2023-12-20T12:42:37;37.30;;;21.30;;
50010;SDS011;35899;50.352;19.390;2023-12-20T12:45:04;31.90;;;19.60;;
50010;SDS011;35899;50.352;19.390;2023-12-20T12:47:31;39.30;;;21.20;;
50010;SDS011;35899;50.352;19.390;2023-12-20T12:49:58;36.80;;;21.10;;
50010;SDS011;35899;50.352;19.390;2023-12-20T12:52:25;34.20;;;20.80;;
50010;SDS011;35899;50.352;19.390;2023-12-20T12:54:54;33.90;;;20.50;;
50010;SDS011;35899;50.352;19.390;2023-12-20T12:57:21;28.90;;;17.50;;
50010;SDS011;35899;50.352;19.390;2023-12-20T12:59:47;34.30;;;19.70;;
50010;SDS011;35899;50.352;19.390;2023-12-20T13:02:15;42.20;;;21.30;;
50010;SDS011;35899;50.352;19.390;2023-12-20T13:04:42;39.30;;;22.10;;
50010;SDS011;35899;50.352;19.390;2023-12-20T13:07:09;47.30;;;24.70;;
50010;SDS011;35899;50.352;19.390;2023-12-20T13:09:36;45.40;;;24.60;;
50010;SDS011;35899;50.352;19.390;2023-12-20T13:12:03;36.80;;;20.30;;
50010;SDS011;35899;50.352;19.390;2023-12-20T13:14:31;47.30;;;25.60;;
50010;SDS011;35899;50.352;19.390;2023-12-20T13:17:01;50.90;;;27.70;;
50010;SDS011;35899;50.352;19.390;2023-12-20T13:19:27;55.30;;;26.80;;
50010;SDS011;35899;50.352;19.390;2023-12-20T13:21:54;55.30;;;30.50;;
50010;SDS011;35899;50.352;19.390;2023-12-20T13:24:21;58.00;;;32.90;;
50010;SDS011;35899;50.352;19.390;2023-12-20T13:26:47;60.10;;;32.50;;
50010;SDS011;35899;50.352;19.390;2023-12-20T13:29:14;66.60;;;34.10;;
50010;SDS011;35899;50.352;19.390;2023-12-20T13:31:41;74.10;;;35.40;;
50010;SDS011;35899;50.352;19.390;2023-12-20T13:34:08;75.80;;;35.50;;
50010;SDS011;35899;50.352;19.390;2023-12-20T13:36:35;70.60;;;33.40;;
50010;SDS011;35899;50.352;19.390;2023-12-20T13:39:02;64.40;;;31.60;;
50010;SDS011;35899;50.352;19.390;2023-12-20T13:41:29;68.30;;;33.10;;
50010;SDS011;35899;50.352;19.390;2023-12-20T13:43:56;53.40;;;28.80;;
50010;SDS011;35899;50.352;19.390;2023-12-20T13:46:23;48.90;;;26.40;;
50010;SDS011;35899;50.352;19.390;2023-12-20T13:48:49;47.00;;;24.90;;
50010;SDS011;35899;50.352;19.390;2023-12-20T13:51:16;43.80;;;23.50;;
50010;SDS011;35899;50.352;19.390;2023-12-20T13:53:43;38.50;;;19.90;;
50010;SDS011;35899;50.352;19.390;2023-12-20T13:56:10;33.00;;;19.00;;
50010;SDS011;35899;50.352;19.390;2023-12-20T13:58:37;41.80;;;22.70;;
50010;SDS011;35899;50.352;19.390;2023-12-20T14:01:04;43.60;;;23.30;;
50010;SDS011;35899;50.352;19.390;2023-12-20T14:03:31;45.00;;;23.00;;
50010;SDS011;35899;50.352;19.390;2023-12-20T14:05:58;52.10;;;25.10;;
50010;SDS011;35899;50.352;19.390;2023-12-20T14:08:24;55.00;;;29.40;;
50010;SDS011;35899;50.352;19.390;2023-12-20T14:10:53;60.50;;;29.50;;
50010;SDS011;35899;50.352;19.390;2023-12-20T14:13:20;59.70;;;31.20;;
50010;SDS011;35899;50.352;19.390;2023-12-20T14:15:46;64.00;;;33.70;;
50010;SDS011;35899;50.352;19.390;2023-12-20T14:18:20;64.10;;;33.60;;
50010;SDS011;35899;50.352;19.390;2023-12-20T14:23:14;66.20;;;32.60;;
50010;SDS011;35899;50.352;19.390;2023-12-20T14:25:41;71.20;;;33.50;;
50010;SDS011;35899;50.352;19.390;2023-12-20T14:28:19;67.00;;;33.00;;
50010;SDS011;35899;50.352;19.390;2023-12-20T14:30:45;67.60;;;33.90;;
50010;SDS011;35899;50.352;19.390;2023-12-20T14:33:12;76.70;;;36.80;;
50010;SDS011;35899;50.352;19.390;2023-12-20T14:35:39;70.00;;;35.40;;
50010;SDS011;35899;50.352;19.390;2023-12-20T14:38:05;75.30;;;37.20;;